createdAt,value
2019-03-16T00:00:25.881Z,92.90
2019-03-16T00:01:28.534Z,92.70
2019-03-16T00:02:31.240Z,91.90
2019-03-16T00:03:33.925Z,92.00
2019-03-16T00:04:36.617Z,90.90
2019-03-16T00:05:39.475Z,91.20
2019-03-16T00:06:42.118Z,91.70
2019-03-16T00:07:44.822Z,91.90
2019-03-16T00:08:47.487Z,91.90
2019-03-16T00:09:50.118Z,92.30
2019-03-16T00:10:52.802Z,91.70
2019-03-16T00:11:55.520Z,91.70
2019-03-16T00:12:58.790Z,93.00
2019-03-16T00:14:01.280Z,91.40
2019-03-16T00:15:04.873Z,92.30
2019-03-16T00:16:07.584Z,92.30
2019-03-16T00:17:10.228Z,91.60
2019-03-16T00:18:12.786Z,91.60
2019-03-16T00:19:15.308Z,92.00
2019-03-16T00:20:19.220Z,91.70
2019-03-16T00:21:21.787Z,91.70
2019-03-16T00:22:24.456Z,91.50
2019-03-16T00:23:27.195Z,91.30
2019-03-16T00:24:30.252Z,91.50
2019-03-16T00:25:34.101Z,91.20
2019-03-16T00:26:36.860Z,93.10
2019-03-16T00:27:39.789Z,92.00
2019-03-16T00:28:42.657Z,91.60
2019-03-16T00:29:45.422Z,91.60
2019-03-16T00:30:50.861Z,90.80
2019-03-16T00:31:53.397Z,91.20
2019-03-16T00:32:57.801Z,91.10
2019-03-16T00:34:00.561Z,92.20
2019-03-16T00:35:04.417Z,91.70
2019-03-16T00:36:07.040Z,91.90
2019-03-16T00:37:09.771Z,91.20
2019-03-16T00:38:12.437Z,91.70
2019-03-16T00:39:15.300Z,91.70
2019-03-16T00:40:18.007Z,92.10
2019-03-16T00:41:20.562Z,90.40
2019-03-16T00:42:23.852Z,91.10
2019-03-16T00:43:26.395Z,91.10
2019-03-16T00:44:29.011Z,91.30
2019-03-16T00:45:31.544Z,91.60
2019-03-16T00:46:34.379Z,90.60
2019-03-16T00:47:37.043Z,90.10
2019-03-16T00:48:39.596Z,90.80
2019-03-16T00:49:42.372Z,90.70
2019-03-16T00:50:45.120Z,91.20
2019-03-16T00:51:47.646Z,91.20
2019-03-16T00:52:50.205Z,90.80
2019-03-16T00:53:52.837Z,91.00
2019-03-16T00:54:55.483Z,90.60
2019-03-16T00:55:58.136Z,91.10
2019-03-16T00:57:02.579Z,91.10
2019-03-16T00:58:05.458Z,91.80
2019-03-16T00:59:07.992Z,90.90
2019-03-16T01:00:10.948Z,91.50
2019-03-16T01:01:13.598Z,91.50
2019-03-16T01:02:26.574Z,90.20
2019-03-16T01:03:21.051Z,90.70
2019-03-16T01:04:23.907Z,90.10
2019-03-16T01:05:27.239Z,91.40
2019-03-16T01:06:30.665Z,90.80
2019-03-16T01:07:34.070Z,90.30
2019-03-16T01:08:37.607Z,90.70
2019-03-16T01:09:43.540Z,90.70
2019-03-16T01:10:46.819Z,90.20
2019-03-16T01:11:51.351Z,90.80
2019-03-16T01:12:54.965Z,90.80
2019-03-16T01:13:57.902Z,90.00
2019-03-16T01:15:01.319Z,90.70
2019-03-16T01:16:04.325Z,90.10
2019-03-16T01:17:08.965Z,90.60
2019-03-16T01:18:13.699Z,90.90
2019-03-16T01:19:17.335Z,90.30
2019-03-16T01:20:20.531Z,90.80
2019-03-16T01:21:23.501Z,90.40
2019-03-16T01:22:26.460Z,90.50
2019-03-16T01:23:29.135Z,91.30
2019-03-16T01:24:33.073Z,90.60
2019-03-16T01:25:36.296Z,90.00
2019-03-16T01:26:40.714Z,90.30
2019-03-16T01:27:43.665Z,90.10
2019-03-16T01:28:46.543Z,90.60
2019-03-16T01:29:50.093Z,90.80
2019-03-16T01:30:53.346Z,89.00
2019-03-16T01:31:58.844Z,89.00
2019-03-16T01:33:01.486Z,90.20
2019-03-16T01:34:04.154Z,90.40
2019-03-16T01:35:06.788Z,90.50
2019-03-16T01:36:09.559Z,91.00
2019-03-16T01:37:12.095Z,91.10
2019-03-16T01:38:14.724Z,90.30
2019-03-16T01:39:17.310Z,90.30
2019-03-16T01:40:19.898Z,90.30
2019-03-16T01:41:22.929Z,90.80
2019-03-16T01:42:25.521Z,90.10
2019-03-16T01:43:28.267Z,91.60
2019-03-16T01:44:30.840Z,91.00
2019-03-16T01:45:33.590Z,89.90
2019-03-16T01:46:36.356Z,88.90
2019-03-16T01:47:39.090Z,90.50
2019-03-16T01:48:41.954Z,91.00
2019-03-16T01:49:44.710Z,89.70
2019-03-16T01:50:47.345Z,90.40
2019-03-16T01:51:50.019Z,90.40
2019-03-16T01:52:52.784Z,90.30
2019-03-16T01:53:55.540Z,90.70
2019-03-16T01:54:58.433Z,91.30
2019-03-16T01:56:01.085Z,90.30
2019-03-16T01:57:03.608Z,91.00
2019-03-16T01:58:06.164Z,91.10
2019-03-16T01:59:08.743Z,90.60
2019-03-16T02:00:11.415Z,91.10
2019-03-16T02:01:13.962Z,91.20
2019-03-16T02:02:16.704Z,90.70
2019-03-16T02:03:19.353Z,91.20
2019-03-16T02:04:22.029Z,91.10
2019-03-16T02:05:25.852Z,91.00
2019-03-16T02:06:29.514Z,91.10
2019-03-16T02:07:32.027Z,91.20
2019-03-16T02:08:34.568Z,91.40
2019-03-16T02:09:37.202Z,91.00
2019-03-16T02:10:39.814Z,91.00
2019-03-16T02:11:42.529Z,91.10
2019-03-16T02:12:45.298Z,90.80
2019-03-16T02:13:48.134Z,91.20
2019-03-16T02:14:50.678Z,91.30
2019-03-16T02:15:54.455Z,90.90
2019-03-16T02:16:57.076Z,91.90
2019-03-16T02:17:59.606Z,91.20
2019-03-16T02:19:02.316Z,91.20
2019-03-16T02:20:05.100Z,91.00
2019-03-16T02:21:07.767Z,91.10
2019-03-16T02:22:12.799Z,91.00
2019-03-16T02:23:15.406Z,91.10
2019-03-16T02:24:18.036Z,91.00
2019-03-16T02:25:20.732Z,91.10
2019-03-16T02:26:23.308Z,90.70
2019-03-16T02:27:26.253Z,90.50
2019-03-16T02:28:28.852Z,90.40
2019-03-16T02:29:31.577Z,90.40
2019-03-16T02:30:34.114Z,90.40
2019-03-16T02:31:36.749Z,91.00
2019-03-16T02:32:39.597Z,90.40
2019-03-16T02:33:43.473Z,90.70
2019-03-16T02:34:46.098Z,90.60
2019-03-16T02:35:48.719Z,90.80
2019-03-16T02:36:52.450Z,90.30
2019-03-16T02:37:55.007Z,89.60
2019-03-16T02:38:57.549Z,90.30
2019-03-16T02:40:00.425Z,90.50
2019-03-16T02:41:04.863Z,90.40
2019-03-16T02:42:07.454Z,90.70
2019-03-16T02:43:09.972Z,91.30
2019-03-16T02:44:12.976Z,90.60
2019-03-16T02:45:16.739Z,90.80
2019-03-16T02:46:19.375Z,91.60
2019-03-16T02:47:21.993Z,91.10
2019-03-16T02:48:24.519Z,91.00
2019-03-16T02:49:27.178Z,90.40
2019-03-16T02:50:29.964Z,90.00
2019-03-16T02:51:32.623Z,90.60
2019-03-16T02:52:35.207Z,90.70
2019-03-16T02:53:38.160Z,91.10
2019-03-16T02:54:40.766Z,90.30
2019-03-16T02:55:43.721Z,90.60
2019-03-16T02:56:46.363Z,90.30
2019-03-16T02:57:48.944Z,90.80
2019-03-16T02:58:51.464Z,90.20
2019-03-16T02:59:54.159Z,91.10
2019-03-16T03:00:56.830Z,90.40
2019-03-16T03:01:59.494Z,91.20
2019-03-16T03:03:02.160Z,90.80
2019-03-16T03:04:05.091Z,90.30
2019-03-16T03:05:08.403Z,90.20
2019-03-16T03:06:11.123Z,89.80
2019-03-16T03:07:13.737Z,90.70
2019-03-16T03:08:16.458Z,90.80
2019-03-16T03:09:19.209Z,90.20
2019-03-16T03:10:22.022Z,90.30
2019-03-16T03:11:24.569Z,90.20
2019-03-16T03:12:27.150Z,90.70
2019-03-16T03:13:29.730Z,91.60
2019-03-16T03:14:32.383Z,90.90
2019-03-16T03:15:35.089Z,91.80
2019-03-16T03:16:37.579Z,91.20
2019-03-16T03:17:40.151Z,91.90
2019-03-16T03:18:43.761Z,91.80
2019-03-16T03:19:46.375Z,91.00
2019-03-16T03:20:50.042Z,91.20
2019-03-16T03:21:53.937Z,91.40
2019-03-16T03:22:56.567Z,91.40
2019-03-16T03:23:59.296Z,90.60
2019-03-16T03:25:01.854Z,91.00
2019-03-16T03:26:04.931Z,91.20
2019-03-16T03:27:07.683Z,91.50
2019-03-16T03:28:10.208Z,91.70
2019-03-16T03:29:14.042Z,91.90
2019-03-16T03:30:16.768Z,91.50
2019-03-16T03:31:19.631Z,91.60
2019-03-16T03:32:23.535Z,91.10
2019-03-16T03:33:26.177Z,91.10
2019-03-16T03:34:29.033Z,91.00
2019-03-16T03:35:33.690Z,90.90
2019-03-16T03:36:36.223Z,91.60
2019-03-16T03:37:39.147Z,91.60
2019-03-16T03:38:42.073Z,91.70
2019-03-16T03:39:44.772Z,90.70
2019-03-16T03:40:47.343Z,91.00
2019-03-16T03:41:50.119Z,90.80
2019-03-16T03:42:52.679Z,91.50
2019-03-16T03:43:55.255Z,91.20
2019-03-16T03:44:59.012Z,91.30
2019-03-16T03:46:01.607Z,91.10
2019-03-16T03:47:04.182Z,90.70
2019-03-16T03:48:08.719Z,91.40
2019-03-16T03:49:11.489Z,91.30
2019-03-16T03:50:14.746Z,91.30
2019-03-16T03:51:17.594Z,91.20
2019-03-16T03:52:20.207Z,91.00
2019-03-16T03:53:22.765Z,90.10
2019-03-16T03:54:25.600Z,90.30
2019-03-16T03:55:28.253Z,90.20
2019-03-16T03:56:30.810Z,90.60
2019-03-16T03:57:33.681Z,90.60
2019-03-16T03:58:38.120Z,89.90
2019-03-16T03:59:40.698Z,89.90
2019-03-16T04:00:43.344Z,90.20
2019-03-16T04:01:46.214Z,90.10
2019-03-16T04:02:48.855Z,90.00
2019-03-16T04:03:51.520Z,88.50
2019-03-16T04:04:54.186Z,89.80
2019-03-16T04:05:56.896Z,88.00
2019-03-16T04:06:59.943Z,89.10
2019-03-16T04:08:02.643Z,89.40
2019-03-16T04:09:07.261Z,88.60
2019-03-16T04:10:10.186Z,90.80
2019-03-16T04:11:12.839Z,90.50
2019-03-16T04:12:15.579Z,89.10
2019-03-16T04:13:18.223Z,91.80
2019-03-16T04:14:20.924Z,91.50
2019-03-16T04:15:23.559Z,90.90
2019-03-16T04:16:26.404Z,91.60
2019-03-16T04:17:29.049Z,90.70
2019-03-16T04:18:31.584Z,90.70
2019-03-16T04:19:34.258Z,90.40
2019-03-16T04:20:38.583Z,91.00
2019-03-16T04:21:41.117Z,90.80
2019-03-16T04:22:43.649Z,90.90
2019-03-16T04:23:46.141Z,91.00
2019-03-16T04:24:48.819Z,90.60
2019-03-16T04:25:51.461Z,92.00
2019-03-16T04:26:54.117Z,91.90
2019-03-16T04:27:56.994Z,92.50
2019-03-16T04:28:59.689Z,92.70
2019-03-16T04:30:02.467Z,92.00
2019-03-16T04:31:05.220Z,92.80
2019-03-16T04:32:07.847Z,92.30
2019-03-16T04:33:10.369Z,93.00
2019-03-16T04:34:12.998Z,92.70
2019-03-16T04:35:15.671Z,91.80
2019-03-16T04:36:18.383Z,91.10
2019-03-16T04:37:20.942Z,91.30
2019-03-16T04:38:23.716Z,92.20
2019-03-16T04:39:26.395Z,91.90
2019-03-16T04:40:29.522Z,92.10
2019-03-16T04:41:32.251Z,92.30
2019-03-16T04:42:34.992Z,92.30
2019-03-16T04:43:37.521Z,92.80
2019-03-16T04:44:40.223Z,91.60
2019-03-16T04:45:43.029Z,92.50
2019-03-16T04:46:45.626Z,92.00
2019-03-16T04:47:48.294Z,92.20
2019-03-16T04:48:51.361Z,93.00
2019-03-16T04:49:55.095Z,92.90
2019-03-16T04:50:57.782Z,94.30
2019-03-16T04:52:00.517Z,94.20
2019-03-16T04:53:03.132Z,93.10
2019-03-16T04:54:05.676Z,92.60
2019-03-16T04:55:08.500Z,93.20
2019-03-16T04:56:12.175Z,93.30
2019-03-16T04:57:14.822Z,93.40
2019-03-16T04:58:17.346Z,93.50
2019-03-16T04:59:20.175Z,93.70
2019-03-16T05:00:22.677Z,93.60
2019-03-16T05:01:25.322Z,94.10
2019-03-16T05:02:28.212Z,94.10
2019-03-16T05:03:30.772Z,93.90
2019-03-16T05:04:42.450Z,94.40
2019-03-16T05:05:37.919Z,93.90
2019-03-16T05:06:42.243Z,94.40
2019-03-16T05:07:44.997Z,94.10
2019-03-16T05:08:47.602Z,94.60
2019-03-16T05:09:50.235Z,94.30
2019-03-16T05:10:52.811Z,95.00
2019-03-16T05:11:55.327Z,93.30
2019-03-16T05:12:57.896Z,94.20
2019-03-16T05:14:00.659Z,94.90
2019-03-16T05:15:03.609Z,93.80
2019-03-16T05:16:06.416Z,94.70
2019-03-16T05:17:09.065Z,94.40
2019-03-16T05:18:11.692Z,95.00
2019-03-16T05:19:14.589Z,94.30
2019-03-16T05:20:17.286Z,95.60
2019-03-16T05:21:19.858Z,94.30
2019-03-16T05:22:22.401Z,94.10
2019-03-16T05:23:25.267Z,94.80
2019-03-16T05:24:27.876Z,95.30
2019-03-16T05:25:30.659Z,94.50
2019-03-16T05:26:33.193Z,95.60
2019-03-16T05:27:35.832Z,95.50
2019-03-16T05:28:38.373Z,95.00
2019-03-16T05:29:40.894Z,95.00
2019-03-16T05:30:43.654Z,95.60
2019-03-16T05:31:46.201Z,96.10
2019-03-16T05:32:48.775Z,95.90
2019-03-16T05:33:51.574Z,96.00
2019-03-16T05:34:56.715Z,94.50
2019-03-16T05:35:58.716Z,95.00
2019-03-16T05:37:01.269Z,94.80
2019-03-16T05:38:03.831Z,95.60
2019-03-16T05:39:07.293Z,94.80
2019-03-16T05:40:10.127Z,94.40
2019-03-16T05:41:12.866Z,94.50
2019-03-16T05:42:15.533Z,94.70
2019-03-16T05:43:18.249Z,94.90
2019-03-16T05:44:20.897Z,95.40
2019-03-16T05:45:23.451Z,95.90
2019-03-16T05:46:25.974Z,95.20
2019-03-16T05:47:28.546Z,95.70
2019-03-16T05:48:31.230Z,96.30
2019-03-16T05:49:33.835Z,96.10
2019-03-16T05:50:36.490Z,95.70
2019-03-16T05:51:41.206Z,96.10
2019-03-16T05:52:43.828Z,96.70
2019-03-16T05:53:46.498Z,96.80
2019-03-16T05:54:49.019Z,95.60
2019-03-16T05:55:53.389Z,95.90
2019-03-16T05:56:55.912Z,96.40
2019-03-16T05:57:58.673Z,96.50
2019-03-16T05:59:02.556Z,95.80
2019-03-16T06:00:09.596Z,95.50
2019-03-16T06:01:11.182Z,95.90
2019-03-16T06:02:14.084Z,95.50
2019-03-16T06:03:16.748Z,95.90
2019-03-16T06:04:19.287Z,95.00
2019-03-16T06:05:22.031Z,96.00
2019-03-16T06:06:27.344Z,95.50
2019-03-16T06:07:29.386Z,95.50
2019-03-16T06:08:32.098Z,96.00
2019-03-16T06:09:34.802Z,96.40
2019-03-16T06:10:37.625Z,96.30
2019-03-16T06:11:40.331Z,95.00
2019-03-16T06:12:42.869Z,95.50
2019-03-16T06:13:47.403Z,95.90
2019-03-16T06:14:50.138Z,95.50
2019-03-16T06:15:52.837Z,95.20
2019-03-16T06:16:55.480Z,95.00
2019-03-16T06:17:58.114Z,95.20
2019-03-16T06:19:01.962Z,95.90
2019-03-16T06:20:06.002Z,95.50
2019-03-16T06:21:08.664Z,96.00
2019-03-16T06:22:11.599Z,95.80
2019-03-16T06:23:14.170Z,96.20
2019-03-16T06:24:16.696Z,95.20
2019-03-16T06:25:19.371Z,95.00
2019-03-16T06:26:21.904Z,94.60
2019-03-16T06:27:25.026Z,95.40
2019-03-16T06:28:27.590Z,96.00
2019-03-16T06:29:30.250Z,95.80
2019-03-16T06:30:33.011Z,95.40
2019-03-16T06:31:35.540Z,95.00
2019-03-16T06:32:38.232Z,94.60
2019-03-16T06:33:40.781Z,95.10
2019-03-16T06:34:43.387Z,95.90
2019-03-16T06:35:45.945Z,95.20
2019-03-16T06:36:48.499Z,95.60
2019-03-16T06:37:51.198Z,96.20
2019-03-16T06:38:53.730Z,94.50
2019-03-16T06:39:56.487Z,94.90
2019-03-16T06:40:59.133Z,95.90
2019-03-16T06:42:01.899Z,95.10
2019-03-16T06:43:04.493Z,95.40
2019-03-16T06:44:07.056Z,95.80
2019-03-16T06:45:10.042Z,95.40
2019-03-16T06:46:12.672Z,95.70
2019-03-16T06:47:15.306Z,96.30
2019-03-16T06:48:17.905Z,96.10
2019-03-16T06:49:20.510Z,96.00
2019-03-16T06:50:23.175Z,95.60
2019-03-16T06:51:25.797Z,96.10
2019-03-16T06:52:28.529Z,96.40
2019-03-16T06:53:31.194Z,96.10
2019-03-16T06:54:33.861Z,95.70
2019-03-16T06:55:36.511Z,96.10
2019-03-16T06:56:39.127Z,96.20
2019-03-16T06:57:44.046Z,96.50
2019-03-16T06:58:46.788Z,95.50
2019-03-16T06:59:49.515Z,96.20
2019-03-16T07:00:52.099Z,95.80
2019-03-16T07:01:55.058Z,95.70
2019-03-16T07:02:58.671Z,96.50
2019-03-16T07:04:01.208Z,96.10
2019-03-16T07:05:06.801Z,96.10
2019-03-16T07:06:09.476Z,96.10
2019-03-16T07:07:12.235Z,95.30
2019-03-16T07:08:15.864Z,96.20
2019-03-16T07:09:18.585Z,96.20
2019-03-16T07:10:21.224Z,96.00
2019-03-16T07:11:23.949Z,96.60
2019-03-16T07:12:26.573Z,96.10
2019-03-16T07:13:29.245Z,95.30
2019-03-16T07:14:31.887Z,95.80
2019-03-16T07:15:35.503Z,95.70
2019-03-16T07:16:38.032Z,95.80
2019-03-16T07:17:40.792Z,96.20
2019-03-16T07:18:58.282Z,96.50
2019-03-16T07:19:51.633Z,96.50
2019-03-16T07:20:54.143Z,96.30
2019-03-16T07:21:57.871Z,95.30
2019-03-16T07:23:00.676Z,95.90
2019-03-16T07:24:03.320Z,96.40
2019-03-16T07:25:06.289Z,96.50
2019-03-16T07:26:14.735Z,96.20
2019-03-16T07:27:25.723Z,95.30
2019-03-16T07:28:18.382Z,96.20
2019-03-16T07:29:21.020Z,96.40
2019-03-16T07:30:23.937Z,96.40
2019-03-16T07:31:57.006Z,96.00
2019-03-16T07:33:00.081Z,96.90
2019-03-16T07:34:02.698Z,96.60
2019-03-16T07:35:05.866Z,96.80
2019-03-16T07:36:08.403Z,96.50
2019-03-16T07:37:11.187Z,96.50
2019-03-16T07:38:13.982Z,96.60
2019-03-16T07:39:16.597Z,96.80
2019-03-16T07:40:19.210Z,97.10
2019-03-16T07:41:21.963Z,97.10
2019-03-16T07:42:24.851Z,96.50
2019-03-16T07:43:27.397Z,96.00
2019-03-16T07:44:30.047Z,96.40
2019-03-16T07:45:32.719Z,96.10
2019-03-16T07:46:35.576Z,95.80
2019-03-16T07:47:38.175Z,95.70
2019-03-16T07:48:40.709Z,96.50
2019-03-16T07:49:43.548Z,96.60
2019-03-16T07:50:46.148Z,95.90
2019-03-16T07:51:48.940Z,96.20
2019-03-16T07:52:51.617Z,96.40
2019-03-16T07:53:54.463Z,96.40
2019-03-16T07:54:57.417Z,96.40
2019-03-16T07:56:00.262Z,96.30
2019-03-16T07:57:02.980Z,96.40
2019-03-16T07:58:06.833Z,96.70
2019-03-16T07:59:09.591Z,96.80
2019-03-16T08:00:12.440Z,96.30
2019-03-16T08:01:15.295Z,96.10
2019-03-16T08:02:17.879Z,96.20
2019-03-16T08:03:20.725Z,95.70
2019-03-16T08:04:23.275Z,96.20
2019-03-16T08:05:25.963Z,96.70
2019-03-16T08:06:28.517Z,96.80
2019-03-16T08:07:31.323Z,97.10
2019-03-16T08:08:33.880Z,97.10
2019-03-16T08:09:36.414Z,96.10
2019-03-16T08:10:39.000Z,96.60
2019-03-16T08:11:41.791Z,96.40
2019-03-16T08:12:44.496Z,96.80
2019-03-16T08:13:47.019Z,96.40
2019-03-16T08:14:49.828Z,96.60
2019-03-16T08:15:52.450Z,97.10
2019-03-16T08:16:55.004Z,97.20
2019-03-16T08:17:57.794Z,96.50
2019-03-16T08:19:00.524Z,96.60
2019-03-16T08:20:03.536Z,97.00
2019-03-16T08:21:06.094Z,97.00
2019-03-16T08:22:08.824Z,97.00
2019-03-16T08:23:11.651Z,96.50
2019-03-16T08:24:16.010Z,96.90
2019-03-16T08:25:18.552Z,97.30
2019-03-16T08:26:21.147Z,97.10
2019-03-16T08:27:29.080Z,97.40
2019-03-16T08:28:31.733Z,96.90
2019-03-16T08:29:35.488Z,96.90
2019-03-16T08:30:38.214Z,97.70
2019-03-16T08:31:40.740Z,97.50
2019-03-16T08:32:43.294Z,97.60
2019-03-16T08:33:46.039Z,97.90
2019-03-16T08:34:48.671Z,97.80
2019-03-16T08:35:53.462Z,97.90
2019-03-16T08:36:56.006Z,98.10
2019-03-16T08:37:58.563Z,97.40
2019-03-16T08:39:01.144Z,98.00
2019-03-16T08:40:04.567Z,98.00
2019-03-16T08:41:07.124Z,97.90
2019-03-16T08:42:12.180Z,97.80
2019-03-16T08:43:14.363Z,98.20
2019-03-16T08:44:18.731Z,98.00
2019-03-16T08:45:21.288Z,97.90
2019-03-16T08:46:25.021Z,97.70
2019-03-16T08:47:27.663Z,97.60
2019-03-16T08:48:30.225Z,97.90
2019-03-16T08:49:33.011Z,98.20
2019-03-16T08:50:35.619Z,98.00
2019-03-16T08:51:38.231Z,98.10
2019-03-16T08:52:40.777Z,98.20
2019-03-16T08:53:43.913Z,98.20
2019-03-16T08:54:46.580Z,98.00
2019-03-16T08:55:49.132Z,98.10
2019-03-16T08:56:51.702Z,97.70
2019-03-16T08:58:05.601Z,98.30
2019-03-16T08:58:58.828Z,98.00
2019-03-16T09:00:01.371Z,98.40
2019-03-16T09:01:04.366Z,98.60
2019-03-16T09:02:07.034Z,98.10
2019-03-16T09:03:09.736Z,98.60
2019-03-16T09:04:12.487Z,98.00
2019-03-16T09:05:15.351Z,98.10
2019-03-16T09:06:17.919Z,98.90
2019-03-16T09:07:20.565Z,98.70
2019-03-16T09:08:23.149Z,99.10
2019-03-16T09:09:25.825Z,98.50
2019-03-16T09:10:28.460Z,98.80
2019-03-16T09:11:31.074Z,98.40
2019-03-16T09:12:33.914Z,98.30
2019-03-16T09:13:36.606Z,98.50
2019-03-16T09:14:39.380Z,98.50
2019-03-16T09:15:41.946Z,98.60
2019-03-16T09:16:44.510Z,98.20
2019-03-16T09:17:48.141Z,98.60
2019-03-16T09:18:50.823Z,98.50
2019-03-16T09:19:53.449Z,98.80
2019-03-16T09:20:56.145Z,98.50
2019-03-16T09:21:58.871Z,98.20
2019-03-16T09:23:03.238Z,98.30
2019-03-16T09:24:06.021Z,98.40
2019-03-16T09:25:08.677Z,97.80
2019-03-16T09:26:11.220Z,97.80
2019-03-16T09:27:13.738Z,98.20
2019-03-16T09:28:18.840Z,98.80
2019-03-16T09:29:21.177Z,98.60
2019-03-16T09:30:23.940Z,98.70
2019-03-16T09:31:26.720Z,98.90
2019-03-16T09:32:29.211Z,98.90
2019-03-16T09:33:33.616Z,98.50
2019-03-16T09:34:36.376Z,99.00
2019-03-16T09:35:39.043Z,98.70
2019-03-16T09:36:41.714Z,99.00
2019-03-16T09:37:44.427Z,99.20
2019-03-16T09:38:46.980Z,99.30
2019-03-16T09:39:49.739Z,99.40
2019-03-16T09:40:52.375Z,99.10
2019-03-16T09:41:54.932Z,98.80
2019-03-16T09:42:57.525Z,98.90
2019-03-16T09:44:01.976Z,99.20
2019-03-16T09:45:05.670Z,99.10
2019-03-16T09:46:08.610Z,99.40
2019-03-16T09:47:11.130Z,99.20
2019-03-16T09:48:13.915Z,99.70
2019-03-16T09:49:16.624Z,99.30
2019-03-16T09:50:19.213Z,99.70
2019-03-16T09:51:21.957Z,99.50
2019-03-16T09:52:24.587Z,99.60
2019-03-16T09:53:27.185Z,99.80
2019-03-16T09:54:29.740Z,99.60
2019-03-16T09:55:35.070Z,99.90
2019-03-16T09:56:37.146Z,99.40
2019-03-16T09:57:39.898Z,99.40
2019-03-16T09:58:42.563Z,99.50
2019-03-16T09:59:45.169Z,99.90
2019-03-16T10:00:47.692Z,99.30
2019-03-16T10:01:50.197Z,99.40
2019-03-16T10:02:52.755Z,99.80
2019-03-16T10:03:55.544Z,99.40
2019-03-16T10:04:58.126Z,99.00
2019-03-16T10:06:00.747Z,99.30
2019-03-16T10:07:03.440Z,99.30
2019-03-16T10:08:06.063Z,98.70
2019-03-16T10:09:08.848Z,98.90
2019-03-16T10:10:11.907Z,98.80
2019-03-16T10:11:14.583Z,99.00
2019-03-16T10:12:17.249Z,98.50
2019-03-16T10:13:19.981Z,98.30
2019-03-16T10:14:23.674Z,98.10
2019-03-16T10:15:26.468Z,98.10
2019-03-16T10:16:29.165Z,98.10
2019-03-16T10:17:31.716Z,97.90
2019-03-16T10:18:34.484Z,97.80
2019-03-16T10:19:37.084Z,98.00
2019-03-16T10:20:39.708Z,98.20
2019-03-16T10:21:42.454Z,97.90
2019-03-16T10:22:45.241Z,97.70
2019-03-16T10:23:48.041Z,97.50
2019-03-16T10:24:50.573Z,97.30
2019-03-16T10:25:53.328Z,97.40
2019-03-16T10:26:56.056Z,97.40
2019-03-16T10:27:58.611Z,97.40
2019-03-16T10:29:01.349Z,97.20
2019-03-16T10:30:05.545Z,97.20
2019-03-16T10:31:08.420Z,97.20
2019-03-16T10:32:10.967Z,97.20
2019-03-16T10:33:13.970Z,96.50
2019-03-16T10:34:16.518Z,96.80
2019-03-16T10:35:19.087Z,96.80
2019-03-16T10:36:21.821Z,96.80
2019-03-16T10:37:24.456Z,96.50
2019-03-16T10:38:27.159Z,96.20
2019-03-16T10:39:29.818Z,96.90
2019-03-16T10:40:32.354Z,96.40
2019-03-16T10:41:34.925Z,96.30
2019-03-16T10:42:37.647Z,96.10
2019-03-16T10:43:40.373Z,96.20
2019-03-16T10:44:42.878Z,96.40
2019-03-16T10:45:45.435Z,96.30
2019-03-16T10:46:50.028Z,96.20
2019-03-16T10:47:52.659Z,96.50
2019-03-16T10:48:55.699Z,96.20
2019-03-16T10:49:59.483Z,96.40
2019-03-16T10:51:02.357Z,96.20
2019-03-16T10:52:04.985Z,96.10
2019-03-16T10:53:09.561Z,96.30
2019-03-16T10:54:14.181Z,96.50
2019-03-16T10:55:16.810Z,96.80
2019-03-16T10:56:19.342Z,96.60
2019-03-16T10:57:22.995Z,95.70
2019-03-16T10:58:25.557Z,96.00
2019-03-16T10:59:28.259Z,96.20
2019-03-16T11:00:30.845Z,96.40
2019-03-16T11:01:33.494Z,96.10
2019-03-16T11:02:36.126Z,95.40
2019-03-16T11:03:39.788Z,95.30
2019-03-16T11:04:42.779Z,95.40
2019-03-16T11:05:45.401Z,95.70
2019-03-16T11:06:48.063Z,96.40
2019-03-16T11:07:50.860Z,96.00
2019-03-16T11:08:53.616Z,95.70
2019-03-16T11:09:56.197Z,96.00
2019-03-16T11:10:58.783Z,95.90
2019-03-16T11:12:03.240Z,95.70
2019-03-16T11:13:05.762Z,96.00
2019-03-16T11:14:08.436Z,95.90
2019-03-16T11:15:11.073Z,95.90
2019-03-16T11:16:13.843Z,96.00
2019-03-16T11:17:16.465Z,96.90
2019-03-16T11:18:19.022Z,96.50
2019-03-16T11:19:21.820Z,96.90
2019-03-16T11:20:24.356Z,96.80
2019-03-16T11:21:26.853Z,96.60
2019-03-16T11:22:29.546Z,96.20
2019-03-16T11:23:32.263Z,96.00
2019-03-16T11:24:34.898Z,96.20
2019-03-16T11:25:37.539Z,96.10
2019-03-16T11:26:41.840Z,95.90
2019-03-16T11:27:45.167Z,96.30
2019-03-16T11:28:47.845Z,95.60
2019-03-16T11:29:52.178Z,96.40
2019-03-16T11:30:54.754Z,96.00
2019-03-16T11:31:57.361Z,95.80
2019-03-16T11:32:59.972Z,95.60
2019-03-16T11:34:02.439Z,95.40
2019-03-16T11:35:06.455Z,95.60
2019-03-16T11:36:10.159Z,95.80
2019-03-16T11:37:12.942Z,95.50
2019-03-16T11:38:15.552Z,94.70
2019-03-16T11:39:18.179Z,94.80
2019-03-16T11:40:20.768Z,94.50
2019-03-16T11:41:23.433Z,94.20
2019-03-16T11:42:27.984Z,94.40
2019-03-16T11:43:30.731Z,94.30
2019-03-16T11:44:33.360Z,94.60
2019-03-16T11:45:35.918Z,95.00
2019-03-16T11:46:38.559Z,94.30
2019-03-16T11:47:41.228Z,94.50
2019-03-16T11:48:43.842Z,94.50
2019-03-16T11:49:46.560Z,94.00
2019-03-16T11:50:49.143Z,93.90
2019-03-16T11:51:51.690Z,94.60
2019-03-16T11:52:54.326Z,94.30
2019-03-16T11:53:56.976Z,94.10
2019-03-16T11:54:59.773Z,94.40
2019-03-16T11:56:02.710Z,94.80
2019-03-16T11:57:05.338Z,93.70
2019-03-16T11:58:07.893Z,93.40
2019-03-16T11:59:20.969Z,94.00
2019-03-16T12:00:15.312Z,94.20
2019-03-16T12:01:19.262Z,94.10
2019-03-16T12:02:21.842Z,94.10
2019-03-16T12:03:24.488Z,94.00
2019-03-16T12:04:27.173Z,93.80
2019-03-16T12:05:29.810Z,93.60
2019-03-16T12:06:32.413Z,94.40
2019-03-16T12:07:35.145Z,93.70
2019-03-16T12:08:39.638Z,93.30
2019-03-16T12:09:42.353Z,93.40
2019-03-16T12:10:44.923Z,93.60
2019-03-16T12:11:47.554Z,93.40
2019-03-16T12:12:50.121Z,93.60
2019-03-16T12:13:52.753Z,93.70
2019-03-16T12:14:55.613Z,94.20
2019-03-16T12:15:58.229Z,93.90
2019-03-16T12:17:01.899Z,93.90
2019-03-16T12:18:04.542Z,93.70
2019-03-16T12:19:07.201Z,93.30
2019-03-16T12:20:09.775Z,93.30
2019-03-16T12:21:13.864Z,93.20
2019-03-16T12:22:16.382Z,93.20
2019-03-16T12:23:19.086Z,93.10
2019-03-16T12:24:21.730Z,92.70
2019-03-16T12:25:24.326Z,92.80
2019-03-16T12:26:26.925Z,92.70
2019-03-16T12:27:31.720Z,92.60
2019-03-16T12:28:34.518Z,92.90
2019-03-16T12:29:37.435Z,93.00
2019-03-16T12:30:41.077Z,92.60
2019-03-16T12:31:43.739Z,92.20
2019-03-16T12:32:46.411Z,92.40
2019-03-16T12:33:49.445Z,92.30
2019-03-16T12:34:51.988Z,92.20
2019-03-16T12:35:54.707Z,92.50
2019-03-16T12:36:57.243Z,92.20
2019-03-16T12:37:59.913Z,92.30
2019-03-16T12:39:03.488Z,91.80
2019-03-16T12:40:06.350Z,92.20
2019-03-16T12:41:09.031Z,92.50
2019-03-16T12:42:11.646Z,92.60
2019-03-16T12:43:14.401Z,91.90
2019-03-16T12:44:17.030Z,91.80
2019-03-16T12:45:20.964Z,92.30
2019-03-16T12:46:23.796Z,91.60
2019-03-16T12:47:26.439Z,91.80
2019-03-16T12:48:29.001Z,92.10
2019-03-16T12:49:31.944Z,91.60
2019-03-16T12:50:34.564Z,91.50
2019-03-16T12:51:37.421Z,91.90
2019-03-16T12:52:40.232Z,91.70
2019-03-16T12:53:44.804Z,91.80
2019-03-16T12:54:48.472Z,91.90
2019-03-16T12:55:51.168Z,91.70
2019-03-16T12:56:53.997Z,92.00
2019-03-16T12:57:56.558Z,92.10
2019-03-16T12:59:09.784Z,92.50
2019-03-16T13:00:05.938Z,92.70
2019-03-16T13:01:08.541Z,91.80
2019-03-16T13:02:11.210Z,92.90
2019-03-16T13:03:13.844Z,92.90
2019-03-16T13:04:16.609Z,92.20
2019-03-16T13:05:19.280Z,92.20
2019-03-16T13:06:23.961Z,91.70
2019-03-16T13:07:26.505Z,91.70
2019-03-16T13:08:30.366Z,91.30
2019-03-16T13:09:32.975Z,91.80
2019-03-16T13:10:35.878Z,91.50
2019-03-16T13:11:38.445Z,90.90
2019-03-16T13:12:41.372Z,90.90
2019-03-16T13:13:45.472Z,90.90
2019-03-16T13:14:48.223Z,91.10
2019-03-16T13:15:50.833Z,91.00
2019-03-16T13:16:53.491Z,90.90
2019-03-16T13:17:57.180Z,90.90
2019-03-16T13:18:59.981Z,91.20
2019-03-16T13:20:03.355Z,90.50
2019-03-16T13:21:06.133Z,91.00
2019-03-16T13:22:11.031Z,91.30
2019-03-16T13:23:13.554Z,91.30
2019-03-16T13:24:16.214Z,90.80
2019-03-16T13:25:18.903Z,91.00
2019-03-16T13:26:21.484Z,90.60
2019-03-16T13:27:24.138Z,90.30
2019-03-16T13:28:26.701Z,90.50
2019-03-16T13:29:31.527Z,90.90
2019-03-16T13:30:34.185Z,90.50